LESA

Salamanca Airport

Airport
ICAO code
LESA
IATA Code
SLM
Summary
ICAO Region
EUR
ICAO Territory
Location

, Castilla y Leon

Serving
Salamanca
Elevation
2595 ft
Coordinates
40° 57' 8" N , 5° 30' 7" W
Metar
Observation
LESA 050030Z AUTO 08004KT 5000 BR NSC M01/M01 Q1011
Station
Salamanca / Matacan
Date/Time
2022-12-05 00:30:00
Wind direction
80°
Wind speed
04 kts
Lowest cloud amount
nil significant cloud
Temperature
-1°C
Dew point
-1°C
Humidity
100%
QNH
1011 hPa
Weather condition
n/a

Runways

Designator Length Width Surface Rops
8/26 2010 122 GRE No/No
3/21 2500 60 ASP No/No

Airport map

Aerial View

SKYbrary Partners:

Safety knowledge contributed by: